Time;durP1;ratioP1;P1;durP2;ratioP2;P2;SDS_P1;SDS_P2;PMS_P1;PMS_P2;Temp;Humidity;BMP_temperature;BMP_pressure;BME280_temperature;BME280_humidity;BME280_pressure;Samples;Min_cycle;Max_cycle;Signal;HPM_P1;HPM_P2
2024/01/29 00:00:15;;;;;;;1.43;1.10;;;0.10;99.90;;;;;;2070660;28;20180;-65
2024/01/29 00:01:16;;;;;;;1.30;1.08;;;0.20;99.90;;;;;;2069198;28;20186;-65
2024/01/29 00:02:17;;;;;;;2.10;1.40;;;0.10;99.90;;;;;;2069956;28;20185;-66
2024/01/29 00:03:17;;;;;;;1.73;1.63;;;0.10;99.90;;;;;;2068087;28;20241;-66
2024/01/29 00:04:18;;;;;;;2.17;1.60;;;0.10;99.90;;;;;;2069396;28;20233;-66
2024/01/29 00:05:19;;;;;;;1.77;1.20;;;0.10;99.90;;;;;;2069593;28;20200;-66
2024/01/29 00:06:19;;;;;;;2.63;1.60;;;0.10;99.90;;;;;;2060993;28;20210;-67
2024/01/29 00:07:20;;;;;;;1.40;1.30;;;0.10;99.90;;;;;;2061845;28;20628;-66
2024/01/29 00:08:21;;;;;;;1.48;1.30;;;0.20;99.90;;;;;;2069697;28;20959;-67
2024/01/29 00:09:23;;;;;;;2.20;1.57;;;0.20;99.90;;;;;;2060959;28;20281;-66
2024/01/29 00:10:25;;;;;;;1.58;1.25;;;0.20;99.90;;;;;;2061018;28;20276;-65
2024/01/29 00:11:26;;;;;;;1.70;1.15;;;0.20;99.90;;;;;;2070080;28;20236;-66
2024/01/29 00:12:27;;;;;;;1.20;1.07;;;0.20;99.90;;;;;;2069689;28;20288;-65
2024/01/29 00:13:27;;;;;;;1.20;1.00;;;0.20;99.90;;;;;;2069077;28;20265;-66
2024/01/29 00:14:28;;;;;;;1.63;1.20;;;0.20;99.90;;;;;;2061370;28;20284;-66
2024/01/29 00:15:28;;;;;;;2.00;0.93;;;0.20;99.90;;;;;;2060273;28;20237;-66
2024/01/29 00:16:29;;;;;;;1.20;0.90;;;0.20;99.90;;;;;;2065706;28;20660;-67
2024/01/29 00:17:30;;;;;;;1.00;0.90;;;0.30;99.90;;;;;;2068326;28;20235;-64
2024/01/29 00:18:30;;;;;;;1.00;0.90;;;0.20;99.90;;;;;;2070713;28;20230;-66
2024/01/29 00:19:31;;;;;;;1.43;1.00;;;0.20;99.90;;;;;;2067931;28;20324;-64
2024/01/29 00:20:31;;;;;;;1.20;1.10;;;0.20;99.90;;;;;;2070216;28;20233;-63
2024/01/29 00:21:32;;;;;;;1.53;1.30;;;0.20;99.90;;;;;;2069730;28;20230;-64
2024/01/29 00:22:33;;;;;;;1.27;1.00;;;0.30;99.90;;;;;;2070182;28;20242;-67
2024/01/29 00:23:33;;;;;;;1.20;1.00;;;0.20;99.90;;;;;;2070167;28;20240;-65
2024/01/29 00:24:34;;;;;;;1.73;1.00;;;0.20;99.90;;;;;;2070162;28;20229;-64
2024/01/29 00:25:34;;;;;;;1.03;0.90;;;0.30;99.90;;;;;;2070648;28;20222;-65
2024/01/29 00:26:38;;;;;;;1.27;1.07;;;0.30;99.90;;;;;;2061118;28;20240;-66
2024/01/29 00:27:39;;;;;;;2.08;1.20;;;0.30;99.90;;;;;;2060161;28;20265;-65
2024/01/29 00:28:40;;;;;;;2.00;1.20;;;0.20;99.90;;;;;;2070585;28;20225;-64
2024/01/29 00:29:40;;;;;;;1.60;1.30;;;0.30;99.90;;;;;;2070355;28;20229;-64
2024/01/29 00:30:41;;;;;;;1.80;1.27;;;0.30;99.90;;;;;;2070471;28;20576;-65
2024/01/29 00:31:41;;;;;;;1.33;1.03;;;0.30;99.90;;;;;;2056737;28;20345;-65
2024/01/29 00:32:42;;;;;;;1.57;1.30;;;0.30;99.90;;;;;;2058572;28;20234;-65
2024/01/29 00:33:43;;;;;;;1.23;1.13;;;0.30;99.90;;;;;;2061838;28;20257;-66
2024/01/29 00:34:44;;;;;;;1.30;1.00;;;0.30;99.90;;;;;;2067901;28;20720;-66
2024/01/29 00:35:44;;;;;;;2.03;1.40;;;0.30;99.90;;;;;;2071149;28;20234;-65
2024/01/29 00:36:45;;;;;;;3.13;1.50;;;0.30;99.90;;;;;;2070200;28;20236;-66
2024/01/29 00:37:46;;;;;;;1.83;1.40;;;0.30;99.90;;;;;;2060976;28;20234;-66
2024/01/29 00:38:46;;;;;;;2.07;1.53;;;0.30;99.90;;;;;;2061375;28;20281;-66
2024/01/29 00:39:47;;;;;;;1.83;1.30;;;0.30;99.90;;;;;;2070328;28;20287;-65
2024/01/29 00:40:47;;;;;;;3.93;1.50;;;0.30;99.90;;;;;;2070220;28;20225;-66
2024/01/29 00:41:48;;;;;;;2.70;1.67;;;0.20;99.90;;;;;;2070209;28;20230;-67
2024/01/29 00:42:48;;;;;;;1.87;1.23;;;0.20;99.90;;;;;;2069858;28;20225;-67
2024/01/29 00:43:50;;;;;;;1.77;1.33;;;0.30;99.90;;;;;;2070218;28;20677;-65
2024/01/29 00:44:50;;;;;;;2.22;1.38;;;0.20;99.90;;;;;;2070602;28;20225;-66
2024/01/29 00:45:51;;;;;;;2.10;1.27;;;0.20;99.90;;;;;;2070192;28;20247;-67
2024/01/29 00:46:51;;;;;;;2.77;1.30;;;0.20;99.90;;;;;;2069849;28;20250;-66
2024/01/29 00:47:52;;;;;;;1.73;1.23;;;0.10;99.90;;;;;;2070125;28;20220;-65
2024/01/29 00:48:53;;;;;;;1.20;1.03;;;0.20;99.90;;;;;;2069921;28;20226;-67
2024/01/29 00:49:53;;;;;;;2.03;1.37;;;0.20;99.90;;;;;;2070229;28;20220;-68
2024/01/29 00:50:55;;;;;;;2.37;1.60;;;0.10;99.90;;;;;;2068553;28;20225;-68
2024/01/29 00:51:56;;;;;;;1.35;1.17;;;0.20;99.90;;;;;;2069758;28;20225;-68
2024/01/29 00:52:56;;;;;;;1.27;1.00;;;0.20;99.90;;;;;;2069940;28;20313;-67
2024/01/29 00:53:57;;;;;;;1.30;0.70;;;0.20;99.90;;;;;;2070003;28;20221;-67
2024/01/29 00:54:57;;;;;;;1.80;1.10;;;0.10;99.90;;;;;;2070398;28;20209;-68
2024/01/29 00:55:58;;;;;;;2.30;0.90;;;0.10;99.90;;;;;;2070488;28;20220;-67
2024/01/29 00:56:58;;;;;;;1.30;0.90;;;0.20;99.90;;;;;;2070925;28;20217;-66
2024/01/29 00:57:59;;;;;;;1.20;0.93;;;0.20;99.90;;;;;;2070302;28;20213;-67
2024/01/29 00:59:00;;;;;;;0.60;0.60;;;0.20;99.90;;;;;;2070342;28;20345;-68
2024/01/29 01:00:00;;;;;;;2.83;1.00;;;0.20;99.90;;;;;;2061781;28;20221;-66
2024/01/29 01:01:01;;;;;;;0.90;0.80;;;0.20;99.90;;;;;;2055492;28;20702;-66
2024/01/29 01:02:02;;;;;;;1.30;1.00;;;0.10;99.90;;;;;;2061731;28;20257;-66
2024/01/29 01:03:03;;;;;;;1.37;1.00;;;0.20;99.90;;;;;;2058377;28;20684;-66
2024/01/29 01:04:04;;;;;;;1.03;0.83;;;0.20;99.90;;;;;;2045643;28;20231;-66
2024/01/29 01:05:06;;;;;;;1.65;1.00;;;0.20;99.90;;;;;;2053856;28;20188;-66
2024/01/29 01:06:09;;;;;;;1.00;0.90;;;0.30;99.90;;;;;;2070359;28;20174;-65
2024/01/29 01:07:10;;;;;;;1.77;1.20;;;0.20;99.90;;;;;;2061335;28;20209;-66
2024/01/29 01:08:11;;;;;;;1.17;0.90;;;0.30;99.90;;;;;;2061720;28;20218;-66
2024/01/29 01:09:13;;;;;;;1.00;0.90;;;0.30;99.90;;;;;;2070923;28;20251;-66
2024/01/29 01:10:14;;;;;;;0.93;0.90;;;0.30;99.90;;;;;;2062677;28;20187;-66
2024/01/29 01:11:15;;;;;;;1.35;0.98;;;0.20;99.90;;;;;;2060168;28;20599;-67
2024/01/29 01:12:16;;;;;;;1.83;1.03;;;0.20;99.90;;;;;;2071608;28;20217;-67
2024/01/29 01:13:16;;;;;;;1.00;0.80;;;0.30;99.90;;;;;;2061704;28;20214;-66
2024/01/29 01:14:17;;;;;;;1.07;0.87;;;0.30;99.90;;;;;;2051427;28;20221;-66
2024/01/29 01:15:18;;;;;;;0.80;0.80;;;0.20;99.90;;;;;;2048238;28;20187;-68
2024/01/29 01:16:19;;;;;;;0.88;0.70;;;0.20;99.90;;;;;;2054780;28;20311;-66
2024/01/29 01:17:19;;;;;;;1.00;0.80;;;0.20;99.90;;;;;;2054536;28;20300;-67
2024/01/29 01:18:20;;;;;;;1.37;0.90;;;0.20;99.90;;;;;;2061724;28;20242;-66
2024/01/29 01:19:21;;;;;;;1.10;1.00;;;0.30;99.90;;;;;;2064735;28;20294;-66
2024/01/29 01:20:22;;;;;;;0.73;0.70;;;0.30;99.90;;;;;;2058781;28;20303;-66
2024/01/29 01:21:22;;;;;;;0.93;0.80;;;0.30;99.90;;;;;;2060632;28;20226;-66
2024/01/29 01:22:23;;;;;;;0.60;0.60;;;0.30;99.90;;;;;;2061851;28;20279;-66
2024/01/29 01:23:24;;;;;;;1.00;0.87;;;0.40;99.90;;;;;;2061958;28;20230;-66
2024/01/29 01:24:24;;;;;;;0.70;0.63;;;0.30;99.90;;;;;;2061609;28;20234;-67
2024/01/29 01:25:25;;;;;;;1.73;0.70;;;0.30;99.90;;;;;;2070675;28;20230;-66
2024/01/29 01:26:26;;;;;;;1.13;0.70;;;0.30;99.90;;;;;;2070400;28;20228;-66
2024/01/29 01:27:26;;;;;;;0.60;0.60;;;0.30;99.60;;;;;;2061835;28;20590;-66
2024/01/29 01:28:27;;;;;;;0.60;0.60;;;0.40;99.90;;;;;;2057783;28;20222;-68
2024/01/29 01:29:28;;;;;;;0.70;0.70;;;0.40;99.90;;;;;;2057324;28;20330;-67
2024/01/29 01:30:28;;;;;;;0.90;0.70;;;0.30;99.90;;;;;;2050536;28;20742;-67
2024/01/29 01:31:29;;;;;;;0.70;0.70;;;0.30;99.90;;;;;;2049265;28;20265;-65
2024/01/29 01:32:30;;;;;;;2.03;0.90;;;0.30;99.90;;;;;;2052167;28;20230;-66
2024/01/29 01:33:31;;;;;;;0.80;0.80;;;0.40;99.90;;;;;;2053074;28;20358;-67
2024/01/29 01:34:31;;;;;;;1.10;0.80;;;0.40;99.90;;;;;;2044481;28;20231;-67
2024/01/29 01:35:32;;;;;;;0.80;0.63;;;0.40;99.90;;;;;;2053526;28;20321;-66
2024/01/29 01:36:33;;;;;;;1.53;0.87;;;0.40;99.90;;;;;;2069708;28;20294;-66
2024/01/29 01:37:33;;;;;;;0.70;0.70;;;0.40;99.90;;;;;;2069865;28;20288;-66
2024/01/29 01:38:34;;;;;;;0.70;0.63;;;0.40;99.90;;;;;;2069463;28;20740;-66
2024/01/29 01:39:35;;;;;;;1.23;0.80;;;0.40;99.90;;;;;;2061530;28;20222;-66
2024/01/29 01:40:35;;;;;;;0.60;0.60;;;0.30;99.90;;;;;;2061439;28;20229;-67
2024/01/29 01:41:36;;;;;;;0.77;0.70;;;0.30;99.90;;;;;;2062051;28;20225;-66
2024/01/29 01:42:41;;;;;;;1.00;0.90;;;0.30;99.90;;;;;;2062485;28;20652;-66
2024/01/29 01:43:41;;;;;;;1.20;0.93;;;0.30;99.90;;;;;;2070535;28;20229;-66
2024/01/29 01:44:42;;;;;;;0.90;0.90;;;0.30;99.90;;;;;;2061274;28;20226;-67
2024/01/29 01:45:43;;;;;;;0.90;0.80;;;0.30;99.90;;;;;;2061955;28;20230;-67
2024/01/29 01:46:44;;;;;;;1.97;0.90;;;0.30;99.90;;;;;;2061423;28;20822;-67
2024/01/29 01:47:44;;;;;;;1.30;1.00;;;0.30;99.90;;;;;;2052137;28;20255;-67
2024/01/29 01:48:46;;;;;;;1.13;0.80;;;0.30;99.90;;;;;;2051014;28;20339;-67
2024/01/29 01:49:47;;;;;;;2.03;1.23;;;0.30;99.90;;;;;;2053853;28;20239;-67
2024/01/29 01:50:48;;;;;;;1.83;1.23;;;0.30;99.90;;;;;;2053439;28;20227;-67
2024/01/29 01:51:50;;;;;;;1.40;1.20;;;0.30;99.90;;;;;;2053382;28;21253;-67
2024/01/29 01:52:50;;;;;;;0.80;0.70;;;0.30;99.90;;;;;;2053482;28;20314;-67
2024/01/29 01:53:54;;;;;;;1.57;1.13;;;0.30;99.90;;;;;;2060812;28;20654;-67
2024/01/29 01:54:55;;;;;;;1.27;0.80;;;0.30;99.90;;;;;;2061391;28;20743;-67
2024/01/29 01:55:56;;;;;;;0.88;0.75;;;0.30;99.90;;;;;;2061395;28;20221;-66
2024/01/29 01:56:58;;;;;;;0.65;0.60;;;0.20;99.90;;;;;;2061455;28;20337;-67
2024/01/29 01:57:59;;;;;;;3.70;1.30;;;0.30;99.90;;;;;;2053394;28;20226;-66
2024/01/29 01:59:04;;;;;;;1.30;0.90;;;0.20;99.90;;;;;;2061480;28;20222;-67
2024/01/29 02:00:05;;;;;;;1.08;0.90;;;0.30;99.90;;;;;;2056353;28;20222;-66
2024/01/29 02:01:06;;;;;;;1.52;1.20;;;0.30;99.90;;;;;;2049902;28;20195;-66
2024/01/29 02:02:07;;;;;;;0.80;0.80;;;0.30;99.90;;;;;;2060462;28;20182;-66
2024/01/29 02:03:08;;;;;;;1.88;1.30;;;0.30;99.90;;;;;;2069115;28;20186;-67
2024/01/29 02:04:09;;;;;;;1.10;1.00;;;0.30;99.90;;;;;;2069076;28;20201;-67
2024/01/29 02:05:09;;;;;;;1.13;0.90;;;0.30;99.90;;;;;;2068820;28;20185;-66
2024/01/29 02:06:11;;;;;;;1.60;1.00;;;0.30;99.90;;;;;;2069467;28;20196;-67
2024/01/29 02:07:12;;;;;;;1.00;0.90;;;0.20;99.90;;;;;;2058774;28;20221;-67
2024/01/29 02:08:15;;;;;;;0.80;0.80;;;0.30;99.90;;;;;;2060625;28;20548;-67
2024/01/29 02:09:16;;;;;;;0.82;0.80;;;0.20;99.90;;;;;;2061699;28;20202;-67
2024/01/29 02:10:17;;;;;;;0.83;0.73;;;0.20;99.90;;;;;;2061661;28;20193;-67
2024/01/29 02:11:17;;;;;;;0.65;0.65;;;0.20;99.90;;;;;;2060451;28;21007;-66
2024/01/29 02:12:20;;;;;;;0.70;0.70;;;0.20;99.90;;;;;;2058158;28;20194;-67
2024/01/29 02:13:21;;;;;;;1.23;0.77;;;0.30;99.90;;;;;;2065221;28;20237;-67
2024/01/29 02:14:22;;;;;;;1.33;0.80;;;0.30;99.90;;;;;;2070294;28;20599;-66
2024/01/29 02:15:24;;;;;;;1.27;0.80;;;0.30;99.90;;;;;;2061002;28;20334;-66
2024/01/29 02:16:25;;;;;;;0.80;0.60;;;0.30;99.90;;;;;;2062395;28;20313;-67
2024/01/29 02:17:26;;;;;;;1.65;1.00;;;0.30;99.90;;;;;;2054666;28;20234;-66
2024/01/29 02:18:27;;;;;;;0.80;0.80;;;0.30;99.90;;;;;;2054169;28;20322;-67
2024/01/29 02:19:27;;;;;;;1.10;0.83;;;0.30;99.90;;;;;;2070270;28;20311;-67
2024/01/29 02:20:28;;;;;;;0.80;0.63;;;0.30;99.90;;;;;;2061976;28;20309;-66
2024/01/29 02:21:29;;;;;;;0.73;0.73;;;0.30;99.90;;;;;;2060791;28;20225;-66
2024/01/29 02:22:30;;;;;;;1.03;0.80;;;0.30;99.90;;;;;;2066143;28;20272;-67
2024/01/29 02:23:30;;;;;;;1.00;0.77;;;0.40;99.90;;;;;;2071118;28;20263;-67
2024/01/29 02:24:31;;;;;;;1.00;0.90;;;0.30;99.90;;;;;;2058337;28;20230;-66
2024/01/29 02:25:33;;;;;;;0.67;0.60;;;0.40;99.90;;;;;;2053515;28;20253;-67
2024/01/29 02:26:34;;;;;;;1.67;0.88;;;0.40;99.90;;;;;;2051069;28;20877;-67
2024/01/29 02:27:34;;;;;;;0.80;0.60;;;0.40;99.90;;;;;;2062016;28;20391;-66
2024/01/29 02:28:35;;;;;;;0.53;0.53;;;0.40;99.90;;;;;;2070751;28;20279;-66
2024/01/29 02:29:36;;;;;;;0.57;0.57;;;0.40;99.90;;;;;;2070995;28;20229;-67
2024/01/29 02:30:37;;;;;;;0.52;0.52;;;0.40;99.40;;;;;;2063244;28;20226;-66
2024/01/29 02:31:38;;;;;;;0.87;0.80;;;0.40;99.60;;;;;;2066271;28;20817;-66
2024/01/29 02:32:39;;;;;;;0.80;0.60;;;0.40;99.60;;;;;;2063278;28;20230;-67
2024/01/29 02:33:39;;;;;;;1.00;0.70;;;0.40;99.00;;;;;;2051623;28;20695;-67
2024/01/29 02:34:40;;;;;;;0.60;0.60;;;0.30;99.80;;;;;;2062046;28;20240;-67
2024/01/29 02:35:41;;;;;;;0.57;0.57;;;0.30;99.90;;;;;;2071148;28;20744;-67
2024/01/29 02:36:41;;;;;;;0.60;0.60;;;0.30;99.90;;;;;;2061979;28;20316;-67
2024/01/29 02:37:42;;;;;;;0.60;0.60;;;0.30;99.90;;;;;;2061818;28;20272;-67
2024/01/29 02:38:43;;;;;;;0.50;0.50;;;0.40;99.70;;;;;;2069764;28;20222;-67
2024/01/29 02:39:43;;;;;;;0.40;0.40;;;0.40;99.40;;;;;;2071804;28;20222;-67
2024/01/29 02:40:44;;;;;;;0.53;0.53;;;0.30;99.30;;;;;;2054811;28;20774;-67
2024/01/29 02:41:45;;;;;;;0.50;0.50;;;0.30;99.60;;;;;;2046303;28;20620;-68
2024/01/29 02:42:45;;;;;;;0.57;0.57;;;0.20;99.90;;;;;;2062020;28;20296;-67
2024/01/29 02:43:46;;;;;;;0.40;0.40;;;0.20;99.90;;;;;;2061788;28;20234;-67
2024/01/29 02:44:47;;;;;;;0.50;0.50;;;0.30;99.80;;;;;;2055642;28;20230;-68
2024/01/29 02:45:49;;;;;;;0.60;0.60;;;0.30;99.90;;;;;;2065166;28;20659;-67
2024/01/29 02:46:49;;;;;;;0.57;0.45;;;0.30;99.90;;;;;;2063277;28;20230;-68
2024/01/29 02:47:50;;;;;;;0.50;0.50;;;0.30;99.90;;;;;;2063752;28;20249;-68
2024/01/29 02:48:51;;;;;;;1.47;0.60;;;0.30;99.90;;;;;;2062501;28;20276;-68
2024/01/29 02:49:52;;;;;;;0.65;0.60;;;0.40;99.20;;;;;;2050517;28;20233;-67
2024/01/29 02:50:52;;;;;;;0.40;0.40;;;0.40;99.10;;;;;;2055042;28;20229;-67
2024/01/29 02:51:53;;;;;;;0.40;0.40;;;0.30;99.40;;;;;;2053818;28;20277;-67
2024/01/29 02:52:54;;;;;;;0.50;0.50;;;0.40;98.40;;;;;;2062505;28;20313;-67
2024/01/29 02:53:54;;;;;;;0.60;0.60;;;0.40;98.00;;;;;;2061569;28;20415;-67
2024/01/29 02:54:55;;;;;;;0.40;0.40;;;0.30;98.50;;;;;;2053985;28;20246;-68
2024/01/29 02:55:56;;;;;;;0.50;0.50;;;0.40;98.10;;;;;;2055136;28;20750;-67
2024/01/29 02:56:56;;;;;;;0.50;0.50;;;0.40;96.80;;;;;;2062499;28;20301;-67
2024/01/29 02:57:57;;;;;;;0.40;0.40;;;0.50;97.50;;;;;;2069605;28;20306;-67
2024/01/29 02:58:58;;;;;;;0.40;0.40;;;0.50;98.00;;;;;;2062169;28;20236;-67
2024/01/29 02:59:58;;;;;;;0.80;0.60;;;0.50;97.00;;;;;;2054084;28;20219;-66
2024/01/29 03:00:59;;;;;;;0.40;0.40;;;0.50;97.50;;;;;;2054863;28;20435;-67
2024/01/29 03:02:00;;;;;;;0.40;0.40;;;0.50;96.80;;;;;;2056020;28;20229;-67
2024/01/29 03:03:01;;;;;;;0.45;0.40;;;0.50;96.40;;;;;;2053419;28;20219;-67
2024/01/29 03:04:01;;;;;;;0.40;0.40;;;0.40;97.50;;;;;;2051272;28;20651;-67
2024/01/29 03:05:03;;;;;;;0.47;0.47;;;0.40;97.20;;;;;;2057839;28;20194;-66
2024/01/29 03:06:04;;;;;;;0.40;0.40;;;0.40;97.40;;;;;;2068145;28;20201;-67
2024/01/29 03:07:04;;;;;;;0.50;0.50;;;0.50;97.50;;;;;;2062117;28;20322;-67
2024/01/29 03:08:06;;;;;;;0.60;0.60;;;0.50;97.90;;;;;;2062620;28;20182;-66
2024/01/29 03:09:07;;;;;;;0.50;0.50;;;0.50;97.70;;;;;;2060819;28;20240;-67
2024/01/29 03:10:07;;;;;;;0.50;0.50;;;0.50;97.70;;;;;;2061023;28;20608;-67
2024/01/29 03:11:08;;;;;;;0.40;0.40;;;0.50;97.60;;;;;;2069668;28;20181;-67
2024/01/29 03:12:09;;;;;;;1.17;0.50;;;0.50;97.30;;;;;;2071674;28;20185;-67
2024/01/29 03:13:10;;;;;;;1.17;0.60;;;0.50;97.10;;;;;;2068814;28;20216;-67
2024/01/29 03:14:10;;;;;;;0.40;0.40;;;0.40;97.70;;;;;;2055007;28;20238;-67
2024/01/29 03:15:11;;;;;;;0.50;0.50;;;0.50;97.80;;;;;;2061328;28;20674;-67
2024/01/29 03:16:12;;;;;;;0.50;0.50;;;0.50;97.80;;;;;;2064089;28;20193;-67
2024/01/29 03:17:12;;;;;;;0.40;0.40;;;0.50;97.70;;;;;;2048718;28;20235;-67
2024/01/29 03:18:13;;;;;;;0.47;0.47;;;0.40;98.30;;;;;;2053805;28;20255;-67
2024/01/29 03:19:14;;;;;;;0.57;0.50;;;0.40;98.50;;;;;;2053336;28;20287;-66
2024/01/29 03:20:14;;;;;;;0.50;0.50;;;0.40;98.80;;;;;;2060827;28;20218;-67
2024/01/29 03:21:15;;;;;;;0.40;0.40;;;0.50;99.00;;;;;;2060963;28;20266;-67
2024/01/29 03:22:16;;;;;;;0.47;0.47;;;0.50;99.10;;;;;;2054807;28;20210;-68
2024/01/29 03:23:16;;;;;;;0.40;0.40;;;0.50;99.00;;;;;;2061796;28;20218;-67
2024/01/29 03:24:17;;;;;;;0.87;0.60;;;0.50;99.10;;;;;;2062509;28;20230;-68
2024/01/29 03:25:18;;;;;;;0.40;0.40;;;0.50;99.50;;;;;;2054079;28;20571;-67
2024/01/29 03:26:18;;;;;;;0.63;0.60;;;0.50;99.60;;;;;;2060226;28;20206;-67
2024/01/29 03:27:19;;;;;;;0.40;0.40;;;0.50;99.60;;;;;;2061288;28;20249;-66
2024/01/29 03:28:20;;;;;;;0.40;0.40;;;0.50;99.90;;;;;;2063213;28;20191;-67
2024/01/29 03:29:20;;;;;;;0.57;0.53;;;0.60;99.90;;;;;;2062387;28;20677;-67
2024/01/29 03:30:21;;;;;;;0.50;0.50;;;0.60;99.90;;;;;;2058677;28;20709;-67
2024/01/29 03:31:22;;;;;;;0.30;0.30;;;0.60;99.90;;;;;;2057079;28;20226;-67
2024/01/29 03:32:22;;;;;;;0.60;0.60;;;0.50;99.80;;;;;;2068898;28;20868;-67
2024/01/29 03:33:23;;;;;;;0.40;0.40;;;0.50;99.90;;;;;;2061800;28;20811;-67
2024/01/29 03:34:24;;;;;;;0.50;0.50;;;0.50;99.90;;;;;;2060453;28;20245;-67
2024/01/29 03:35:24;;;;;;;0.40;0.40;;;0.60;99.90;;;;;;2069369;28;20315;-67
2024/01/29 03:36:25;;;;;;;0.40;0.40;;;0.60;99.90;;;;;;2071175;28;20764;-67
2024/01/29 03:37:27;;;;;;;0.40;0.40;;;0.70;99.40;;;;;;2059302;28;20235;-67
2024/01/29 03:38:28;;;;;;;0.75;0.50;;;0.60;99.20;;;;;;2052355;28;20699;-67
2024/01/29 03:39:28;;;;;;;0.40;0.40;;;0.60;99.20;;;;;;2052926;28;20235;-67
2024/01/29 03:40:29;;;;;;;0.40;0.40;;;0.60;98.50;;;;;;2062083;28;20713;-68
2024/01/29 03:41:30;;;;;;;0.57;0.40;;;0.60;98.90;;;;;;2069157;28;20237;-67
2024/01/29 03:42:30;;;;;;;0.77;0.40;;;0.70;97.40;;;;;;2061755;28;20338;-67
2024/01/29 03:43:31;;;;;;;0.40;0.40;;;0.70;97.70;;;;;;2061494;28;20688;-67
2024/01/29 03:44:31;;;;;;;0.50;0.50;;;0.60;97.90;;;;;;2060590;28;20265;-67
2024/01/29 03:45:32;;;;;;;0.60;0.40;;;0.80;97.60;;;;;;2061606;28;20234;-67
2024/01/29 03:46:33;;;;;;;0.30;0.30;;;0.80;98.10;;;;;;2061110;28;20276;-67
2024/01/29 03:47:33;;;;;;;0.40;0.40;;;0.80;96.90;;;;;;2056828;28;20245;-67
2024/01/29 03:48:34;;;;;;;0.50;0.50;;;0.80;97.30;;;;;;2070485;28;20230;-67
2024/01/29 03:49:35;;;;;;;0.20;0.20;;;0.80;97.40;;;;;;2071765;28;20594;-67
2024/01/29 03:50:35;;;;;;;0.50;0.40;;;0.80;96.30;;;;;;2070901;28;20257;-67
2024/01/29 03:51:36;;;;;;;0.50;0.47;;;0.90;96.40;;;;;;2070380;28;20724;-67
2024/01/29 03:52:37;;;;;;;2.00;0.40;;;0.90;96.90;;;;;;2070489;28;20292;-67
2024/01/29 03:53:37;;;;;;;0.40;0.40;;;0.90;97.30;;;;;;2069992;28;20225;-67
2024/01/29 03:54:38;;;;;;;0.40;0.40;;;0.90;94.90;;;;;;2061524;28;20651;-67
2024/01/29 03:55:39;;;;;;;0.37;0.37;;;0.90;95.80;;;;;;2044732;28;20605;-67
2024/01/29 03:56:39;;;;;;;0.40;0.40;;;0.70;97.30;;;;;;2053933;28;20237;-67
2024/01/29 03:57:40;;;;;;;0.40;0.40;;;0.70;97.50;;;;;;2070474;28;20240;-67
2024/01/29 03:58:41;;;;;;;0.40;0.40;;;0.70;98.10;;;;;;2069063;28;20264;-67
2024/01/29 03:59:42;;;;;;;0.60;0.50;;;0.70;97.80;;;;;;2069667;28;20233;-67
2024/01/29 04:00:43;;;;;;;0.50;0.50;;;0.70;97.50;;;;;;2072032;28;20222;-67
2024/01/29 04:01:43;;;;;;;0.33;0.33;;;0.80;97.40;;;;;;2059880;28;20234;-68
2024/01/29 04:02:46;;;;;;;0.37;0.37;;;0.70;97.20;;;;;;2058764;28;20699;-67
2024/01/29 04:03:46;;;;;;;0.70;0.50;;;0.70;97.40;;;;;;2057251;28;20601;-67
2024/01/29 04:04:48;;;;;;;0.37;0.37;;;0.70;97.50;;;;;;2060343;28;20266;-68
2024/01/29 04:05:49;;;;;;;0.50;0.50;;;0.70;97.50;;;;;;2069817;28;20240;-67
2024/01/29 04:06:49;;;;;;;0.43;0.43;;;0.70;97.80;;;;;;2060304;28;20879;-67
2024/01/29 04:07:50;;;;;;;0.40;0.40;;;0.70;97.30;;;;;;2059771;28;20230;-66
2024/01/29 04:08:51;;;;;;;0.40;0.40;;;0.80;97.20;;;;;;2069502;28;20225;-67
2024/01/29 04:09:51;;;;;;;0.50;0.50;;;0.70;96.80;;;;;;2069481;28;20612;-67
2024/01/29 04:10:52;;;;;;;0.30;0.30;;;0.70;97.00;;;;;;2070234;28;20312;-67
2024/01/29 04:11:53;;;;;;;0.50;0.50;;;0.70;97.20;;;;;;2068769;28;20229;-67
2024/01/29 04:12:54;;;;;;;0.30;0.30;;;0.70;96.10;;;;;;2058904;28;20296;-68
2024/01/29 04:13:55;;;;;;;1.33;0.60;;;0.70;96.90;;;;;;2052868;28;20219;-67
2024/01/29 04:14:55;;;;;;;0.47;0.43;;;0.60;97.40;;;;;;2061981;28;20217;-67
2024/01/29 04:15:56;;;;;;;0.40;0.40;;;0.70;97.30;;;;;;2052684;28;20223;-67
2024/01/29 04:16:57;;;;;;;0.50;0.50;;;0.70;96.60;;;;;;2060965;28;20229;-67
2024/01/29 04:17:58;;;;;;;0.30;0.30;;;0.70;95.00;;;;;;2069082;28;20232;-67
2024/01/29 04:18:58;;;;;;;0.43;0.40;;;0.80;93.10;;;;;;2061056;28;20253;-67
2024/01/29 04:19:59;;;;;;;0.40;0.40;;;0.70;95.10;;;;;;2062640;28;20261;-68
2024/01/29 04:21:00;;;;;;;0.50;0.40;;;0.70;95.30;;;;;;2069798;28;20334;-67
2024/01/29 04:22:00;;;;;;;0.50;0.50;;;0.70;96.10;;;;;;2061055;28;20257;-67
2024/01/29 04:23:01;;;;;;;0.50;0.50;;;0.70;95.80;;;;;;2060023;28;20222;-67
2024/01/29 04:24:02;;;;;;;0.40;0.40;;;0.70;96.00;;;;;;2067859;28;20241;-66
2024/01/29 04:25:06;;;;;;;0.40;0.40;;;0.80;95.90;;;;;;2061312;28;20213;-67
2024/01/29 04:26:07;;;;;;;0.30;0.30;;;0.80;96.20;;;;;;2061752;28;20226;-67
2024/01/29 04:27:07;;;;;;;0.40;0.40;;;0.80;95.80;;;;;;2069850;28;20225;-67
2024/01/29 04:28:08;;;;;;;0.40;0.40;;;0.90;96.10;;;;;;2069456;28;20236;-67
2024/01/29 04:29:08;;;;;;;0.50;0.50;;;0.90;96.00;;;;;;2069133;28;20288;-67
2024/01/29 04:30:10;;;;;;;0.40;0.40;;;0.90;95.10;;;;;;2069099;28;20186;-67
2024/01/29 04:31:10;;;;;;;0.50;0.50;;;0.90;96.00;;;;;;2060899;28;20182;-67
2024/01/29 04:32:11;;;;;;;0.40;0.40;;;0.80;96.50;;;;;;2053221;28;20274;-67
2024/01/29 04:33:12;;;;;;;0.50;0.50;;;0.80;95.80;;;;;;2060737;28;20261;-67
2024/01/29 04:34:12;;;;;;;1.60;0.50;;;0.80;96.40;;;;;;2069610;28;20197;-67
2024/01/29 04:35:13;;;;;;;0.40;0.40;;;0.80;95.50;;;;;;2074414;28;20681;-67
2024/01/29 04:36:15;;;;;;;0.30;0.30;;;0.70;96.50;;;;;;2069586;28;20592;-67
2024/01/29 04:37:16;;;;;;;0.40;0.40;;;0.80;96.00;;;;;;2060507;28;20190;-67
2024/01/29 04:38:16;;;;;;;0.80;0.50;;;0.80;96.20;;;;;;2061546;28;20202;-66
2024/01/29 04:39:17;;;;;;;0.50;0.50;;;0.80;95.30;;;;;;2060646;28;20635;-67
2024/01/29 04:40:17;;;;;;;0.50;0.50;;;0.80;96.20;;;;;;2062357;28;20238;-67
2024/01/29 04:41:20;;;;;;;0.40;0.40;;;0.90;96.20;;;;;;2061550;28;20178;-67
2024/01/29 04:42:20;;;;;;;0.40;0.40;;;0.90;96.20;;;;;;2049337;28;20253;-66
2024/01/29 04:43:21;;;;;;;0.40;0.40;;;0.90;96.70;;;;;;2060345;28;20325;-67
2024/01/29 04:44:22;;;;;;;2.43;0.80;;;0.90;97.00;;;;;;2068152;28;20837;-67
2024/01/29 04:45:22;;;;;;;0.60;0.40;;;0.90;97.60;;;;;;2053653;28;20284;-67
2024/01/29 04:46:23;;;;;;;0.60;0.60;;;0.90;98.00;;;;;;2053158;28;20334;-67
2024/01/29 04:47:24;;;;;;;0.47;0.47;;;0.90;98.10;;;;;;2069840;28;20607;-67
2024/01/29 04:48:25;;;;;;;0.83;0.50;;;0.90;98.10;;;;;;2060871;28;20317;-66
2024/01/29 04:49:25;;;;;;;1.20;0.40;;;0.90;98.00;;;;;;2053364;28;20219;-67
2024/01/29 04:50:26;;;;;;;0.40;0.40;;;0.90;97.90;;;;;;2061920;28;20261;-67
2024/01/29 04:51:27;;;;;;;1.67;0.40;;;0.80;98.40;;;;;;2060394;28;20247;-67
2024/01/29 04:52:28;;;;;;;1.37;0.40;;;0.80;98.70;;;;;;2060751;28;20268;-67
2024/01/29 04:53:28;;;;;;;0.60;0.50;;;0.90;99.10;;;;;;2066964;28;20718;-67
2024/01/29 04:54:30;;;;;;;0.47;0.47;;;0.90;99.10;;;;;;2066329;28;20221;-67
2024/01/29 04:55:31;;;;;;;0.40;0.40;;;0.90;99.10;;;;;;2059613;28;20373;-66
2024/01/29 04:56:31;;;;;;;0.53;0.50;;;0.90;99.20;;;;;;2060723;28;20307;-67
2024/01/29 04:57:32;;;;;;;2.00;0.67;;;0.80;99.40;;;;;;2068236;28;20230;-67
2024/01/29 04:58:33;;;;;;;0.60;0.57;;;0.90;99.50;;;;;;2068536;28;20232;-67
2024/01/29 04:59:34;;;;;;;0.52;0.50;;;0.80;99.50;;;;;;2068209;28;20552;-67
2024/01/29 05:00:35;;;;;;;0.53;0.50;;;0.80;99.70;;;;;;2059846;28;20261;-66
2024/01/29 05:01:35;;;;;;;0.50;0.50;;;0.80;99.90;;;;;;2047809;28;20230;-67
2024/01/29 05:02:36;;;;;;;0.40;0.40;;;0.80;99.90;;;;;;2051023;28;20329;-67
2024/01/29 05:03:37;;;;;;;0.57;0.57;;;0.80;99.90;;;;;;2059651;28;20245;-66
2024/01/29 05:04:37;;;;;;;0.50;0.50;;;0.80;99.90;;;;;;2051513;28;20230;-67
2024/01/29 05:05:38;;;;;;;1.83;1.10;;;0.90;99.90;;;;;;2051739;28;20230;-67
2024/01/29 05:06:39;;;;;;;3.80;2.27;;;0.90;99.90;;;;;;2065135;28;20229;-66
2024/01/29 05:07:40;;;;;;;2.47;2.00;;;0.90;99.90;;;;;;2061926;28;20593;-67
2024/01/29 05:08:42;;;;;;;4.13;2.83;;;0.80;99.90;;;;;;2059631;28;21047;-67
2024/01/29 05:09:42;;;;;;;3.25;2.95;;;0.90;99.90;;;;;;2054643;28;20234;-68
2024/01/29 05:10:43;;;;;;;3.17;2.47;;;1.00;99.90;;;;;;2056623;28;20293;-67
2024/01/29 05:11:44;;;;;;;3.17;2.47;;;1.00;99.90;;;;;;2062170;28;20990;-67
2024/01/29 05:12:44;;;;;;;3.63;2.50;;;1.00;99.90;;;;;;2060469;28;20261;-67
2024/01/29 05:13:45;;;;;;;3.47;2.57;;;1.10;99.90;;;;;;2054156;28;20258;-67
2024/01/29 05:14:46;;;;;;;2.73;2.33;;;1.10;99.80;;;;;;2052029;28;20265;-66
2024/01/29 05:15:46;;;;;;;3.17;2.60;;;1.10;99.90;;;;;;2049949;28;20694;-67
2024/01/29 05:16:47;;;;;;;2.43;2.10;;;1.10;99.90;;;;;;2048287;28;20235;-67
2024/01/29 05:17:47;;;;;;;2.30;2.10;;;1.10;99.80;;;;;;2059985;28;20785;-67
2024/01/29 05:18:49;;;;;;;4.70;3.10;;;1.10;99.90;;;;;;2052277;28;20379;-68
2024/01/29 05:19:50;;;;;;;2.13;1.90;;;1.10;99.80;;;;;;2051528;28;20270;-67
2024/01/29 05:20:51;;;;;;;3.17;2.60;;;1.10;99.90;;;;;;2060343;28;20222;-67